createdAt,value
2018-03-07T00:00:32.870Z,78.06
2018-03-07T00:03:00.576Z,77.90
2018-03-07T00:05:28.164Z,77.74
2018-03-07T00:07:55.797Z,77.68
2018-03-07T00:10:23.474Z,77.74
2018-03-07T00:12:51.171Z,77.63
2018-03-07T00:15:18.795Z,77.62
2018-03-07T00:17:46.393Z,77.46
2018-03-07T00:20:14.213Z,77.26
2018-03-07T00:22:41.888Z,77.19
2018-03-07T00:25:09.539Z,77.33
2018-03-07T00:27:37.156Z,78.11
2018-03-07T00:30:04.840Z,78.48
2018-03-07T00:32:32.547Z,78.25
2018-03-07T00:35:00.231Z,77.80
2018-03-07T00:37:28.035Z,78.22
2018-03-07T00:39:55.716Z,78.36
2018-03-07T00:42:23.393Z,78.32
2018-03-07T00:44:51.008Z,78.62
2018-03-07T00:47:18.602Z,78.32
2018-03-07T00:49:46.321Z,78.40
2018-03-07T00:52:14.001Z,78.47
2018-03-07T00:54:41.636Z,78.48
2018-03-07T00:57:09.325Z,78.85
2018-03-07T00:59:37.000Z,79.06
2018-03-07T01:02:04.633Z,79.00
2018-03-07T01:04:32.323Z,79.17
2018-03-07T01:07:00.053Z,78.90
2018-03-07T01:09:27.664Z,78.79
2018-03-07T01:11:55.354Z,79.10
2018-03-07T01:14:23.070Z,79.14
2018-03-07T01:16:50.792Z,79.21
2018-03-07T01:19:18.472Z,79.17
2018-03-07T01:21:46.379Z,79.25
2018-03-07T01:24:14.056Z,78.57
2018-03-07T01:26:41.652Z,78.62
2018-03-07T01:29:09.287Z,79.17
2018-03-07T01:31:37.026Z,78.99
2018-03-07T01:34:04.757Z,79.06
2018-03-07T01:36:32.344Z,79.12
2018-03-07T01:39:00.071Z,79.30
2018-03-07T01:41:27.668Z,79.53
2018-03-07T01:43:55.284Z,79.51
2018-03-07T01:46:22.978Z,79.64
2018-03-07T01:48:50.665Z,79.36
2018-03-07T01:51:18.363Z,79.56
2018-03-07T01:53:46.033Z,79.24
2018-03-07T01:56:13.855Z,79.13
2018-03-07T01:58:41.453Z,79.24
2018-03-07T02:01:09.047Z,78.98
2018-03-07T02:03:36.744Z,79.12
2018-03-07T02:06:04.332Z,79.17
2018-03-07T02:08:31.943Z,79.02
2018-03-07T02:10:59.615Z,79.21
2018-03-07T02:13:27.392Z,79.50
2018-03-07T02:15:55.072Z,79.60
2018-03-07T02:18:22.757Z,79.79
2018-03-07T02:20:50.473Z,79.79
2018-03-07T02:23:18.146Z,79.84
2018-03-07T02:25:45.764Z,79.78
2018-03-07T02:28:13.451Z,80.26
2018-03-07T02:30:41.427Z,80.07
2018-03-07T02:33:09.101Z,80.01
2018-03-07T02:35:36.694Z,79.98
2018-03-07T02:38:04.325Z,80.17
2018-03-07T02:40:31.921Z,80.26
2018-03-07T02:42:59.576Z,80.31
2018-03-07T02:45:27.171Z,80.32
2018-03-07T02:47:54.965Z,80.17
2018-03-07T02:50:22.569Z,80.36
2018-03-07T02:52:50.180Z,80.15
2018-03-07T02:55:17.808Z,79.91
2018-03-07T02:57:45.409Z,80.21
2018-03-07T03:00:13.100Z,80.73
2018-03-07T03:02:40.780Z,80.42
2018-03-07T03:05:08.396Z,80.62
2018-03-07T03:07:35.993Z,80.50
2018-03-07T03:10:03.933Z,80.92
2018-03-07T03:12:31.531Z,81.33
2018-03-07T03:14:59.120Z,81.10
2018-03-07T03:17:26.821Z,81.17
2018-03-07T03:19:54.414Z,81.13
2018-03-07T03:22:22.139Z,81.38
2018-03-07T03:24:49.738Z,81.15
2018-03-07T03:27:17.377Z,81.04
2018-03-07T03:29:44.963Z,80.98
2018-03-07T03:32:12.561Z,81.19
2018-03-07T03:34:40.339Z,81.01
2018-03-07T03:37:07.996Z,80.98
2018-03-07T03:39:35.611Z,80.92
2018-03-07T03:42:03.203Z,81.48
2018-03-07T03:44:30.846Z,81.25
2018-03-07T03:46:58.452Z,81.56
2018-03-07T03:49:26.060Z,81.35
2018-03-07T03:51:53.693Z,81.77
2018-03-07T03:54:21.284Z,82.64
2018-03-07T03:56:48.910Z,82.47
2018-03-07T03:59:16.504Z,83.59
2018-03-07T04:01:44.128Z,83.38
2018-03-07T04:04:11.721Z,83.09
2018-03-07T04:06:39.328Z,83.17
2018-03-07T04:09:06.939Z,83.00
2018-03-07T04:11:34.539Z,83.23
2018-03-07T04:14:02.164Z,83.78
2018-03-07T04:16:29.763Z,83.96
2018-03-07T04:18:57.750Z,83.38
2018-03-07T04:21:25.355Z,83.17
2018-03-07T04:23:52.958Z,83.42
2018-03-07T04:26:20.596Z,83.50
2018-03-07T04:28:48.196Z,83.07
2018-03-07T04:31:15.810Z,83.55
2018-03-07T04:33:43.406Z,83.35
2018-03-07T04:36:11.213Z,83.43
2018-03-07T04:38:38.836Z,83.66
2018-03-07T04:41:06.433Z,83.90
2018-03-07T04:43:34.048Z,83.97
2018-03-07T04:46:01.646Z,83.90
2018-03-07T04:48:29.275Z,83.57
2018-03-07T04:50:56.876Z,83.56
2018-03-07T04:53:24.525Z,83.57
2018-03-07T04:55:52.122Z,83.14
2018-03-07T04:58:19.724Z,83.50
2018-03-07T05:00:47.340Z,83.82
2018-03-07T05:03:14.937Z,83.99
2018-03-07T05:05:42.915Z,84.34
2018-03-07T05:08:10.508Z,83.97
2018-03-07T05:10:38.097Z,84.51
2018-03-07T05:13:05.712Z,83.39
2018-03-07T05:15:33.314Z,83.35
2018-03-07T05:18:01.129Z,83.78
2018-03-07T05:20:28.720Z,83.35
2018-03-07T05:22:56.317Z,82.50
2018-03-07T05:25:23.936Z,82.54
2018-03-07T05:27:51.524Z,82.98
2018-03-07T05:30:19.179Z,83.30
2018-03-07T05:32:46.772Z,83.06
2018-03-07T05:35:14.572Z,82.56
2018-03-07T05:37:42.191Z,83.34
2018-03-07T05:40:09.779Z,83.33
2018-03-07T05:42:37.396Z,82.40
2018-03-07T05:45:04.984Z,82.49
2018-03-07T05:47:32.596Z,82.76
2018-03-07T05:50:00.197Z,81.51
2018-03-07T05:52:27.852Z,81.57
2018-03-07T05:54:55.464Z,81.86
2018-03-07T05:57:23.057Z,81.11
2018-03-07T05:59:50.688Z,80.62
2018-03-07T06:02:18.273Z,81.03
2018-03-07T06:04:45.886Z,80.87
2018-03-07T06:07:13.487Z,80.64
2018-03-07T06:09:41.163Z,79.38
2018-03-07T06:12:08.756Z,79.79
2018-03-07T06:14:36.347Z,79.92
2018-03-07T06:17:03.962Z,79.51
2018-03-07T06:19:31.563Z,79.16
2018-03-07T06:21:59.172Z,79.69
2018-03-07T06:24:26.768Z,79.89
2018-03-07T06:26:54.667Z,79.97
2018-03-07T06:29:22.258Z,79.62
2018-03-07T06:31:49.852Z,78.78
2018-03-07T06:34:17.460Z,78.88
2018-03-07T06:36:45.068Z,78.71
2018-03-07T06:39:12.695Z,79.69
2018-03-07T06:41:40.294Z,79.89
2018-03-07T06:44:08.076Z,79.71
2018-03-07T06:46:35.673Z,80.29
2018-03-07T06:49:03.270Z,80.04
2018-03-07T06:51:30.906Z,79.47
2018-03-07T06:53:58.593Z,79.59
2018-03-07T06:56:26.220Z,79.35
2018-03-07T06:58:53.831Z,79.24
2018-03-07T07:01:21.456Z,77.35
2018-03-07T07:03:49.053Z,78.26
2018-03-07T07:06:16.794Z,78.27
2018-03-07T07:08:44.410Z,77.70
2018-03-07T07:11:12.099Z,77.66
2018-03-07T07:13:39.731Z,77.58
2018-03-07T07:16:07.327Z,77.55
2018-03-07T07:18:35.042Z,77.69
2018-03-07T07:21:02.631Z,77.93
2018-03-07T07:23:30.242Z,77.96
2018-03-07T07:25:57.859Z,77.99
2018-03-07T07:28:25.458Z,78.32
2018-03-07T07:30:53.456Z,78.04
2018-03-07T07:33:21.125Z,77.99
2018-03-07T07:35:49.095Z,78.53
2018-03-07T07:38:16.689Z,78.13
2018-03-07T07:40:44.317Z,77.50
2018-03-07T07:43:11.935Z,77.10
2018-03-07T07:45:39.529Z,76.96
2018-03-07T07:48:07.135Z,77.09
2018-03-07T07:50:34.729Z,76.26
2018-03-07T07:53:02.419Z,76.07
2018-03-07T07:55:30.014Z,75.70
2018-03-07T07:57:57.633Z,75.42
2018-03-07T08:00:25.251Z,74.95
2018-03-07T08:02:52.852Z,75.62
2018-03-07T08:05:21.145Z,73.90
2018-03-07T08:07:49.009Z,74.00
2018-03-07T08:10:17.136Z,73.33
2018-03-07T08:12:44.856Z,72.34
2018-03-07T08:15:12.484Z,72.92
2018-03-07T08:17:40.112Z,73.03
2018-03-07T08:20:08.038Z,72.55
2018-03-07T08:22:35.691Z,72.48
2018-03-07T08:25:03.313Z,72.38
2018-03-07T08:27:31.153Z,70.90
2018-03-07T08:29:58.783Z,70.94
2018-03-07T08:32:26.372Z,70.83
2018-03-07T08:34:53.995Z,71.39
2018-03-07T08:37:21.613Z,70.21
2018-03-07T08:39:49.226Z,69.40
2018-03-07T08:42:16.826Z,69.88
2018-03-07T08:44:47.058Z,69.33
2018-03-07T08:47:14.724Z,69.55
2018-03-07T08:49:42.315Z,68.83
2018-03-07T08:52:09.935Z,69.37
2018-03-07T08:54:37.539Z,69.56
2018-03-07T08:57:05.151Z,69.49
2018-03-07T08:59:32.765Z,70.30
2018-03-07T09:02:00.641Z,69.63
2018-03-07T09:04:28.235Z,69.40
2018-03-07T09:06:55.845Z,70.09
2018-03-07T09:09:23.478Z,69.34
2018-03-07T09:11:51.073Z,69.37
2018-03-07T09:14:18.698Z,69.63
2018-03-07T09:16:46.300Z,69.28
2018-03-07T09:19:14.512Z,69.02
2018-03-07T09:21:48.282Z,69.37
2018-03-07T09:24:17.637Z,68.65
2018-03-07T09:26:45.468Z,69.79
2018-03-07T09:29:13.066Z,69.38
2018-03-07T09:31:40.679Z,69.09
2018-03-07T09:34:08.285Z,69.29
2018-03-07T09:36:35.961Z,69.04
2018-03-07T09:39:03.548Z,69.06
2018-03-07T09:41:31.176Z,68.66
2018-03-07T09:43:58.799Z,68.84
2018-03-07T09:46:26.399Z,68.35
2018-03-07T09:48:54.553Z,68.05
2018-03-07T09:51:22.429Z,67.72
2018-03-07T09:53:50.487Z,68.25
2018-03-07T09:56:18.154Z,68.16
2018-03-07T09:58:45.854Z,67.06
2018-03-07T10:01:13.463Z,67.73
2018-03-07T10:03:41.070Z,67.50
2018-03-07T10:06:08.741Z,67.68
2018-03-07T10:08:36.344Z,67.02
2018-03-07T10:11:03.953Z,65.82
2018-03-07T10:13:31.549Z,66.16
2018-03-07T10:15:59.450Z,66.73
2018-03-07T10:18:27.049Z,66.42
2018-03-07T10:20:54.905Z,66.91
2018-03-07T10:23:22.749Z,67.06
2018-03-07T10:25:50.353Z,67.67
2018-03-07T10:28:17.973Z,67.89
2018-03-07T10:30:45.556Z,68.00
2018-03-07T10:33:18.904Z,68.57
2018-03-07T10:35:46.516Z,68.39
2018-03-07T10:38:14.097Z,68.44
2018-03-07T10:40:41.725Z,68.06
2018-03-07T10:43:09.320Z,67.54
2018-03-07T10:45:36.944Z,67.73
2018-03-07T10:48:04.541Z,67.24
2018-03-07T10:50:32.975Z,67.32
2018-03-07T10:53:00.936Z,67.56
2018-03-07T10:55:28.525Z,67.75
2018-03-07T10:57:56.140Z,68.16
2018-03-07T11:00:29.137Z,68.55
2018-03-07T11:02:56.755Z,67.84
2018-03-07T11:05:24.354Z,67.29
2018-03-07T11:07:52.219Z,67.52
2018-03-07T11:10:19.817Z,67.44
2018-03-07T11:12:47.404Z,67.38
2018-03-07T11:15:15.072Z,67.34
2018-03-07T11:17:42.713Z,67.29
2018-03-07T11:20:10.648Z,67.26
2018-03-07T11:22:38.499Z,67.55
2018-03-07T11:25:06.365Z,67.39
2018-03-07T11:27:33.943Z,67.05
2018-03-07T11:30:01.540Z,67.28
2018-03-07T11:32:29.152Z,66.17
2018-03-07T11:34:56.754Z,65.46
2018-03-07T11:37:24.379Z,65.22
2018-03-07T11:39:52.013Z,65.09
2018-03-07T11:42:19.800Z,65.33
2018-03-07T11:44:47.397Z,65.29
2018-03-07T11:47:14.981Z,63.79
2018-03-07T11:49:42.640Z,64.72
2018-03-07T11:52:10.330Z,64.63
2018-03-07T11:54:38.309Z,64.18
2018-03-07T11:57:05.918Z,63.84
2018-03-07T11:59:33.508Z,63.97
2018-03-07T12:02:01.160Z,63.39
2018-03-07T12:04:28.756Z,62.78
2018-03-07T12:06:56.372Z,61.98
2018-03-07T12:09:23.976Z,62.64
2018-03-07T12:11:51.592Z,61.62
2018-03-07T12:14:19.216Z,62.94
2018-03-07T12:16:46.806Z,62.77
2018-03-07T12:19:14.423Z,62.53
2018-03-07T12:21:42.043Z,62.79
2018-03-07T12:24:09.688Z,61.73
2018-03-07T12:26:37.300Z,61.22
2018-03-07T12:29:05.274Z,60.75
2018-03-07T12:31:32.879Z,60.36
2018-03-07T12:34:00.478Z,60.06
2018-03-07T12:36:28.104Z,60.20
2018-03-07T12:38:55.695Z,59.10
2018-03-07T12:41:23.337Z,59.35
2018-03-07T12:43:50.939Z,59.16
2018-03-07T12:46:18.512Z,58.69
2018-03-07T12:48:46.116Z,59.17
2018-03-07T12:51:13.706Z,59.11
2018-03-07T12:53:41.976Z,59.55
2018-03-07T12:56:09.588Z,59.24
2018-03-07T12:58:37.178Z,59.26
2018-03-07T13:01:04.843Z,58.94
2018-03-07T13:03:32.442Z,59.17
2018-03-07T13:06:00.059Z,59.86
2018-03-07T13:08:27.668Z,59.64
2018-03-07T13:10:55.528Z,59.94
2018-03-07T13:13:23.152Z,58.92
2018-03-07T13:15:50.751Z,58.72
2018-03-07T13:18:18.361Z,58.70
2018-03-07T13:20:45.968Z,56.92
2018-03-07T13:23:13.579Z,55.49
2018-03-07T13:25:41.186Z,53.52
2018-03-07T13:28:09.035Z,50.65
2018-03-07T13:30:36.630Z,48.28
2018-03-07T13:33:04.275Z,47.76
2018-03-07T13:35:31.908Z,48.76
2018-03-07T13:37:59.524Z,51.43
2018-03-07T13:40:27.144Z,52.11
2018-03-07T13:42:54.736Z,52.62
2018-03-07T13:45:22.512Z,51.82
2018-03-07T13:47:50.170Z,51.80
2018-03-07T13:50:17.761Z,51.58
2018-03-07T13:52:45.377Z,50.30
2018-03-07T13:55:12.967Z,48.78
2018-03-07T13:57:40.617Z,48.40
2018-03-07T14:00:08.218Z,48.03
2018-03-07T14:02:36.138Z,47.48
2018-03-07T14:05:03.730Z,46.64
2018-03-07T14:07:31.340Z,46.63
2018-03-07T14:09:58.952Z,46.54
2018-03-07T14:12:26.698Z,45.94
2018-03-07T14:14:54.323Z,46.04
2018-03-07T14:17:21.912Z,45.83
2018-03-07T14:19:50.890Z,46.06
2018-03-07T14:22:18.478Z,46.60
2018-03-07T14:24:46.329Z,46.99
2018-03-07T14:27:14.215Z,45.36
2018-03-07T14:29:41.864Z,45.85
2018-03-07T14:32:09.485Z,44.67
2018-03-07T14:34:37.080Z,44.86
2018-03-07T14:37:05.066Z,46.07
2018-03-07T14:39:32.655Z,45.88
2018-03-07T14:42:00.247Z,45.38
2018-03-07T14:44:27.866Z,45.13
2018-03-07T14:46:55.452Z,45.85
2018-03-07T14:49:23.064Z,45.84
2018-03-07T14:51:50.668Z,45.90
2018-03-07T14:54:18.861Z,45.89
2018-03-07T14:56:46.783Z,45.05
2018-03-07T14:59:14.396Z,44.92
2018-03-07T15:01:42.018Z,46.18
2018-03-07T15:04:09.623Z,45.58
2018-03-07T15:06:37.427Z,45.32
2018-03-07T15:09:05.024Z,45.00
2018-03-07T15:11:32.676Z,45.27
2018-03-07T15:14:00.269Z,45.27
2018-03-07T15:16:27.856Z,45.63
2018-03-07T15:18:55.622Z,46.09
2018-03-07T15:21:23.213Z,45.95
2018-03-07T15:23:51.169Z,46.48
2018-03-07T15:26:19.200Z,46.58
2018-03-07T15:28:46.944Z,46.80
2018-03-07T15:31:14.620Z,46.82
2018-03-07T15:33:42.226Z,47.13
2018-03-07T15:36:09.871Z,46.91
2018-03-07T15:38:37.476Z,47.39
2018-03-07T15:41:05.102Z,47.52
2018-03-07T15:43:32.726Z,47.60
2018-03-07T15:46:00.367Z,48.03
2018-03-07T15:48:28.943Z,48.20
2018-03-07T15:50:56.564Z,47.50
2018-03-07T15:53:24.524Z,47.72
2018-03-07T15:55:52.418Z,48.37
2018-03-07T15:58:20.045Z,48.35
2018-03-07T16:00:47.634Z,48.88
2018-03-07T16:03:15.615Z,48.47
2018-03-07T16:05:43.229Z,48.94
2018-03-07T16:08:10.846Z,48.75
2018-03-07T16:10:38.475Z,48.89
2018-03-07T16:13:06.064Z,49.20
2018-03-07T16:15:33.757Z,49.72
2018-03-07T16:18:01.344Z,49.93
2018-03-07T16:20:29.362Z,49.79
2018-03-07T16:22:57.009Z,50.02
2018-03-07T16:25:24.820Z,50.20
2018-03-07T16:27:52.743Z,50.29
2018-03-07T16:30:20.337Z,55.06
2018-03-07T16:32:48.014Z,50.58
2018-03-07T16:35:15.602Z,50.85
2018-03-07T16:37:43.483Z,50.61
2018-03-07T16:40:11.097Z,50.31
2018-03-07T16:42:38.696Z,50.33
2018-03-07T16:45:06.440Z,50.71
2018-03-07T16:47:34.036Z,50.66
2018-03-07T16:50:01.652Z,50.69
2018-03-07T16:52:29.281Z,50.95
2018-03-07T16:54:57.450Z,51.01
2018-03-07T16:57:25.193Z,51.17
2018-03-07T16:59:52.782Z,51.16
2018-03-07T17:02:20.723Z,51.19
2018-03-07T17:04:48.333Z,51.18
2018-03-07T17:07:16.148Z,51.32
2018-03-07T17:09:43.743Z,51.27
2018-03-07T17:12:11.755Z,51.92
2018-03-07T17:14:39.360Z,51.81
2018-03-07T17:17:06.948Z,51.71
2018-03-07T17:19:35.496Z,51.68
2018-03-07T17:22:03.106Z,51.70
2018-03-07T17:24:30.937Z,51.99
2018-03-07T17:26:58.798Z,51.97
2018-03-07T17:29:26.520Z,51.45
2018-03-07T17:31:54.112Z,52.17
2018-03-07T17:34:21.720Z,51.68
2018-03-07T17:36:49.332Z,51.44
2018-03-07T17:39:16.916Z,52.04
2018-03-07T17:41:44.524Z,51.58
2018-03-07T17:44:12.113Z,51.88
2018-03-07T17:46:40.478Z,51.77
2018-03-07T17:49:08.068Z,52.00
2018-03-07T17:51:35.656Z,52.28
2018-03-07T17:54:03.600Z,52.56
2018-03-07T17:56:31.365Z,52.29
2018-03-07T17:58:59.301Z,51.91
2018-03-07T18:01:26.896Z,52.34
2018-03-07T18:03:54.498Z,52.50
2018-03-07T18:06:22.107Z,52.62
2018-03-07T18:08:49.692Z,52.56
2018-03-07T18:11:17.304Z,52.47
2018-03-07T18:13:44.902Z,51.82
2018-03-07T18:16:12.748Z,52.30
2018-03-07T18:18:40.408Z,52.49
2018-03-07T18:21:07.992Z,53.11
2018-03-07T18:23:36.154Z,53.48
2018-03-07T18:26:04.032Z,52.94
2018-03-07T18:28:31.646Z,53.32
2018-03-07T18:30:59.232Z,53.36
2018-03-07T18:33:26.894Z,53.15
2018-03-07T18:35:54.553Z,53.28
2018-03-07T18:38:22.171Z,52.90
2018-03-07T18:40:49.827Z,53.19
2018-03-07T18:43:17.429Z,53.51
2018-03-07T18:45:45.204Z,53.43
2018-03-07T18:48:12.813Z,53.19
2018-03-07T18:50:40.427Z,53.50
2018-03-07T18:53:08.424Z,53.69
2018-03-07T18:55:36.267Z,53.72
2018-03-07T18:58:03.918Z,53.79
2018-03-07T19:00:31.504Z,53.60
2018-03-07T19:02:59.133Z,53.43
2018-03-07T19:05:28.274Z,53.40
2018-03-07T19:07:55.863Z,53.32
2018-03-07T19:10:23.479Z,53.72
2018-03-07T19:12:51.237Z,53.78
2018-03-07T19:15:19.095Z,53.56
2018-03-07T19:17:46.751Z,53.32
2018-03-07T19:20:15.625Z,53.56
2018-03-07T19:22:43.242Z,53.83
2018-03-07T19:25:10.992Z,54.25
2018-03-07T19:27:38.933Z,54.00
2018-03-07T19:30:06.529Z,54.16
2018-03-07T19:32:34.487Z,54.50
2018-03-07T19:35:02.065Z,54.65
2018-03-07T19:37:29.650Z,54.66
2018-03-07T19:39:57.293Z,54.83
2018-03-07T19:42:24.881Z,55.13
2018-03-07T19:44:52.503Z,55.22
2018-03-07T19:47:20.094Z,55.68
2018-03-07T19:49:47.738Z,55.18
2018-03-07T19:52:15.329Z,55.59
2018-03-07T19:54:42.941Z,55.20
2018-03-07T19:57:10.915Z,55.62
2018-03-07T19:59:38.554Z,56.18
2018-03-07T20:02:06.178Z,55.99
2018-03-07T20:04:33.782Z,55.98
2018-03-07T20:07:01.558Z,56.37
2018-03-07T20:09:29.147Z,56.39
2018-03-07T20:11:56.776Z,56.82
2018-03-07T20:14:24.379Z,56.36
2018-03-07T20:16:51.972Z,56.83
2018-03-07T20:19:19.608Z,57.09
2018-03-07T20:21:47.208Z,56.84
2018-03-07T20:24:15.069Z,57.73
2018-03-07T20:26:42.666Z,58.45
2018-03-07T20:29:10.294Z,58.78
2018-03-07T20:31:38.012Z,58.63
2018-03-07T20:34:05.603Z,58.72
2018-03-07T20:36:33.246Z,58.90
2018-03-07T20:39:00.866Z,59.00
2018-03-07T20:41:28.483Z,58.76
2018-03-07T20:43:56.178Z,59.34
2018-03-07T20:46:23.789Z,59.82
2018-03-07T20:48:51.508Z,60.11
2018-03-07T20:51:19.100Z,60.10
2018-03-07T20:53:46.712Z,59.65
2018-03-07T20:56:14.301Z,60.31
2018-03-07T20:58:41.937Z,60.17
2018-03-07T21:01:09.575Z,60.27
2018-03-07T21:03:37.264Z,60.56
2018-03-07T21:06:04.879Z,60.85
2018-03-07T21:08:32.471Z,60.90
2018-03-07T21:11:00.076Z,60.99
2018-03-07T21:13:27.668Z,61.34
2018-03-07T21:15:55.276Z,61.31
2018-03-07T21:18:22.876Z,61.90
2018-03-07T21:20:50.463Z,61.77
2018-03-07T21:23:18.149Z,61.81
2018-03-07T21:25:45.733Z,61.70
2018-03-07T21:28:13.360Z,61.61
2018-03-07T21:30:40.949Z,61.46
2018-03-07T21:33:08.570Z,61.26
2018-03-07T21:35:36.183Z,61.71
2018-03-07T21:38:03.776Z,61.93
2018-03-07T21:40:31.588Z,61.41
2018-03-07T21:42:59.174Z,61.42
2018-03-07T21:45:26.766Z,61.46
2018-03-07T21:47:54.414Z,61.35
2018-03-07T21:50:22.017Z,61.15
2018-03-07T21:52:49.624Z,62.15
2018-03-07T21:55:17.227Z,61.27
2018-03-07T21:57:44.864Z,61.78
2018-03-07T22:00:12.460Z,61.67
2018-03-07T22:02:40.050Z,62.14
2018-03-07T22:05:07.670Z,61.95
2018-03-07T22:07:35.248Z,62.01
2018-03-07T22:10:03.222Z,62.61
2018-03-07T22:12:30.802Z,62.44
2018-03-07T22:14:58.397Z,62.12
2018-03-07T22:17:26.012Z,62.46
2018-03-07T22:19:53.591Z,62.39
2018-03-07T22:22:21.227Z,62.25
2018-03-07T22:24:48.808Z,61.82
2018-03-07T22:27:16.407Z,62.10
2018-03-07T22:29:44.023Z,61.96
2018-03-07T22:32:11.617Z,62.40
2018-03-07T22:34:39.250Z,62.75
2018-03-07T22:37:06.833Z,62.84
2018-03-07T22:39:34.432Z,62.74
2018-03-07T22:42:02.034Z,62.64
2018-03-07T22:44:29.620Z,62.56
2018-03-07T22:46:57.211Z,63.00
2018-03-07T22:49:24.848Z,63.54
2018-03-07T22:51:52.440Z,63.61
2018-03-07T22:54:20.029Z,64.05
2018-03-07T22:56:47.641Z,64.40
2018-03-07T22:59:15.245Z,64.77
2018-03-07T23:01:43.108Z,64.72
2018-03-07T23:04:10.695Z,63.88
2018-03-07T23:06:38.285Z,63.86
2018-03-07T23:09:05.893Z,64.48
2018-03-07T23:11:33.481Z,64.20
2018-03-07T23:14:01.414Z,64.38
2018-03-07T23:16:29.001Z,64.59
2018-03-07T23:18:56.587Z,64.52
2018-03-07T23:21:24.189Z,64.65
2018-03-07T23:23:51.881Z,64.95
2018-03-07T23:26:19.491Z,64.91
2018-03-07T23:28:47.076Z,65.03
2018-03-07T23:31:14.716Z,65.20
2018-03-07T23:33:42.298Z,65.27
2018-03-07T23:36:09.880Z,65.00
2018-03-07T23:38:37.506Z,65.04
2018-03-07T23:41:05.088Z,64.74
2018-03-07T23:43:32.702Z,64.23
2018-03-07T23:46:00.290Z,64.20
2018-03-07T23:48:28.066Z,64.40
2018-03-07T23:50:55.645Z,64.55
2018-03-07T23:53:23.335Z,64.63
2018-03-07T23:55:50.952Z,64.58
2018-03-07T23:58:18.547Z,64.71
